sensor_id;sensor_type;location;lat;lon;timestamp;temperature;humidity
56308;DHT22;42217;50.422;7.210;2023-02-01T00:00:15;4.60;99.90
56308;DHT22;42217;50.422;7.210;2023-02-01T00:02:41;4.50;99.90
56308;DHT22;42217;50.422;7.210;2023-02-01T00:05:08;4.40;99.90
56308;DHT22;42217;50.422;7.210;2023-02-01T00:07:35;4.30;99.90
56308;DHT22;42217;50.422;7.210;2023-02-01T00:10:00;4.30;99.90
56308;DHT22;42217;50.422;7.210;2023-02-01T00:12:26;4.20;99.90
56308;DHT22;42217;50.422;7.210;2023-02-01T00:14:52;4.30;99.90
56308;DHT22;42217;50.422;7.210;2023-02-01T00:17:18;4.40;99.90
56308;DHT22;42217;50.422;7.210;2023-02-01T00:19:43;4.50;99.90
56308;DHT22;42217;50.422;7.210;2023-02-01T00:22:09;4.50;99.90
56308;DHT22;42217;50.422;7.210;2023-02-01T00:24:35;4.60;99.90
56308;DHT22;42217;50.422;7.210;2023-02-01T00:27:00;4.60;99.90
56308;DHT22;42217;50.422;7.210;2023-02-01T00:29:26;4.70;99.90
56308;DHT22;42217;50.422;7.210;2023-02-01T00:31:52;4.80;99.90
56308;DHT22;42217;50.422;7.210;2023-02-01T00:34:18;4.80;99.90
56308;DHT22;42217;50.422;7.210;2023-02-01T00:36:44;4.80;99.90
56308;DHT22;42217;50.422;7.210;2023-02-01T00:39:11;4.80;99.90
56308;DHT22;42217;50.422;7.210;2023-02-01T00:41:37;4.70;99.90
56308;DHT22;42217;50.422;7.210;2023-02-01T00:44:03;4.50;99.90
56308;DHT22;42217;50.422;7.210;2023-02-01T00:46:30;4.50;99.90
56308;DHT22;42217;50.422;7.210;2023-02-01T00:48:55;4.60;99.90
56308;DHT22;42217;50.422;7.210;2023-02-01T00:51:24;4.60;99.90
56308;DHT22;42217;50.422;7.210;2023-02-01T00:53:50;4.50;99.90
56308;DHT22;42217;50.422;7.210;2023-02-01T00:56:16;4.50;99.90
56308;DHT22;42217;50.422;7.210;2023-02-01T00:58:42;4.60;99.90
56308;DHT22;42217;50.422;7.210;2023-02-01T01:01:20;4.60;99.90
56308;DHT22;42217;50.422;7.210;2023-02-01T01:03:57;4.70;99.90
56308;DHT22;42217;50.422;7.210;2023-02-01T01:06:26;4.60;99.90
56308;DHT22;42217;50.422;7.210;2023-02-01T01:08:53;4.60;99.90
56308;DHT22;42217;50.422;7.210;2023-02-01T01:11:22;4.90;99.90
56308;DHT22;42217;50.422;7.210;2023-02-01T01:13:50;4.80;99.90
56308;DHT22;42217;50.422;7.210;2023-02-01T01:16:17;4.70;99.90
56308;DHT22;42217;50.422;7.210;2023-02-01T01:18:43;4.70;99.90
56308;DHT22;42217;50.422;7.210;2023-02-01T01:21:11;4.80;99.90
56308;DHT22;42217;50.422;7.210;2023-02-01T01:23:37;4.80;99.90
56308;DHT22;42217;50.422;7.210;2023-02-01T01:26:20;5.00;99.90
56308;DHT22;42217;50.422;7.210;2023-02-01T01:28:46;5.10;99.90
56308;DHT22;42217;50.422;7.210;2023-02-01T01:31:13;5.10;99.90
56308;DHT22;42217;50.422;7.210;2023-02-01T01:33:40;5.10;99.90
56308;DHT22;42217;50.422;7.210;2023-02-01T01:36:07;5.10;99.90
56308;DHT22;42217;50.422;7.210;2023-02-01T01:38:32;5.00;99.90
56308;DHT22;42217;50.422;7.210;2023-02-01T01:40:58;5.00;99.90
56308;DHT22;42217;50.422;7.210;2023-02-01T01:43:24;4.80;99.90
56308;DHT22;42217;50.422;7.210;2023-02-01T01:45:50;4.60;99.90
56308;DHT22;42217;50.422;7.210;2023-02-01T01:50:57;4.70;99.90
56308;DHT22;42217;50.422;7.210;2023-02-01T01:53:28;4.60;99.90
56308;DHT22;42217;50.422;7.210;2023-02-01T01:55:57;4.60;99.90
56308;DHT22;42217;50.422;7.210;2023-02-01T01:58:26;4.40;99.90
56308;DHT22;42217;50.422;7.210;2023-02-01T02:00:53;4.30;99.90
56308;DHT22;42217;50.422;7.210;2023-02-01T02:03:23;4.50;99.90
56308;DHT22;42217;50.422;7.210;2023-02-01T02:05:52;4.60;99.90
56308;DHT22;42217;50.422;7.210;2023-02-01T02:08:20;4.60;99.90
56308;DHT22;42217;50.422;7.210;2023-02-01T02:10:50;4.50;99.90
56308;DHT22;42217;50.422;7.210;2023-02-01T02:21:36;4.80;99.90
56308;DHT22;42217;50.422;7.210;2023-02-01T02:27:23;4.80;99.90
56308;DHT22;42217;50.422;7.210;2023-02-01T02:37:42;5.00;99.90
56308;DHT22;42217;50.422;7.210;2023-02-01T02:42:48;4.90;99.90
56308;DHT22;42217;50.422;7.210;2023-02-01T02:48:47;5.20;99.90
56308;DHT22;42217;50.422;7.210;2023-02-01T02:51:28;5.20;99.90
56308;DHT22;42217;50.422;7.210;2023-02-01T02:54:19;5.20;99.90
56308;DHT22;42217;50.422;7.210;2023-02-01T02:57:07;5.20;99.90
56308;DHT22;42217;50.422;7.210;2023-02-01T02:59:55;5.20;99.90
56308;DHT22;42217;50.422;7.210;2023-02-01T03:02:40;5.10;99.90
56308;DHT22;42217;50.422;7.210;2023-02-01T03:05:25;5.20;99.90
56308;DHT22;42217;50.422;7.210;2023-02-01T03:08:01;5.20;99.90
56308;DHT22;42217;50.422;7.210;2023-02-01T03:13:22;5.10;99.90
56308;DHT22;42217;50.422;7.210;2023-02-01T03:18:37;5.10;99.90
56308;DHT22;42217;50.422;7.210;2023-02-01T03:21:10;5.10;99.90
56308;DHT22;42217;50.422;7.210;2023-02-01T03:23:37;5.10;99.90
56308;DHT22;42217;50.422;7.210;2023-02-01T03:26:09;5.00;99.90
56308;DHT22;42217;50.422;7.210;2023-02-01T03:28:38;5.00;99.90
56308;DHT22;42217;50.422;7.210;2023-02-01T03:31:08;4.80;99.90
56308;DHT22;42217;50.422;7.210;2023-02-01T03:33:33;4.80;99.90
56308;DHT22;42217;50.422;7.210;2023-02-01T03:36:19;4.90;99.90
56308;DHT22;42217;50.422;7.210;2023-02-01T03:41:37;4.80;99.90
56308;DHT22;42217;50.422;7.210;2023-02-01T03:46:49;4.70;99.90
56308;DHT22;42217;50.422;7.210;2023-02-01T03:49:44;4.60;99.90
56308;DHT22;42217;50.422;7.210;2023-02-01T03:52:15;4.70;99.90
56308;DHT22;42217;50.422;7.210;2023-02-01T03:54:43;4.80;99.90
56308;DHT22;42217;50.422;7.210;2023-02-01T03:57:12;4.80;99.90
56308;DHT22;42217;50.422;7.210;2023-02-01T03:59:40;4.90;99.90
56308;DHT22;42217;50.422;7.210;2023-02-01T04:02:06;4.80;99.90
56308;DHT22;42217;50.422;7.210;2023-02-01T04:04:33;4.60;99.90
56308;DHT22;42217;50.422;7.210;2023-02-01T04:06:59;4.70;99.90
56308;DHT22;42217;50.422;7.210;2023-02-01T04:09:25;4.80;99.90
56308;DHT22;42217;50.422;7.210;2023-02-01T04:11:51;5.00;99.90
56308;DHT22;42217;50.422;7.210;2023-02-01T04:14:16;5.10;99.90
56308;DHT22;42217;50.422;7.210;2023-02-01T04:16:42;5.20;99.90
56308;DHT22;42217;50.422;7.210;2023-02-01T04:19:08;5.20;99.90
56308;DHT22;42217;50.422;7.210;2023-02-01T04:21:33;5.20;99.90
56308;DHT22;42217;50.422;7.210;2023-02-01T04:23:59;5.20;99.90
56308;DHT22;42217;50.422;7.210;2023-02-01T04:26:25;5.10;99.90
56308;DHT22;42217;50.422;7.210;2023-02-01T04:28:52;5.10;99.90
56308;DHT22;42217;50.422;7.210;2023-02-01T04:31:18;5.10;99.90
56308;DHT22;42217;50.422;7.210;2023-02-01T04:33:54;5.10;99.90
56308;DHT22;42217;50.422;7.210;2023-02-01T04:36:22;5.10;99.90
56308;DHT22;42217;50.422;7.210;2023-02-01T04:38:49;5.10;99.90
56308;DHT22;42217;50.422;7.210;2023-02-01T04:41:15;5.10;99.90
56308;DHT22;42217;50.422;7.210;2023-02-01T04:43:48;5.10;99.90
56308;DHT22;42217;50.422;7.210;2023-02-01T04:46:14;5.20;99.90
56308;DHT22;42217;50.422;7.210;2023-02-01T04:48:40;5.10;99.90
56308;DHT22;42217;50.422;7.210;2023-02-01T04:51:06;5.10;99.90
56308;DHT22;42217;50.422;7.210;2023-02-01T04:53:32;5.10;99.90
56308;DHT22;42217;50.422;7.210;2023-02-01T04:55:57;5.10;99.90
56308;DHT22;42217;50.422;7.210;2023-02-01T04:58:23;5.00;99.90
56308;DHT22;42217;50.422;7.210;2023-02-01T05:00:49;5.00;99.90
56308;DHT22;42217;50.422;7.210;2023-02-01T05:03:15;5.00;99.90
56308;DHT22;42217;50.422;7.210;2023-02-01T05:05:41;5.00;99.90
56308;DHT22;42217;50.422;7.210;2023-02-01T05:08:07;5.00;99.90
56308;DHT22;42217;50.422;7.210;2023-02-01T05:10:32;4.90;99.90
56308;DHT22;42217;50.422;7.210;2023-02-01T05:12:58;4.90;99.90
56308;DHT22;42217;50.422;7.210;2023-02-01T05:15:42;4.80;99.90
56308;DHT22;42217;50.422;7.210;2023-02-01T05:18:08;4.80;99.90
56308;DHT22;42217;50.422;7.210;2023-02-01T05:20:33;4.70;99.90
56308;DHT22;42217;50.422;7.210;2023-02-01T05:22:59;4.70;99.90
56308;DHT22;42217;50.422;7.210;2023-02-01T05:25:25;4.70;99.90
56308;DHT22;42217;50.422;7.210;2023-02-01T05:27:50;4.70;99.90
56308;DHT22;42217;50.422;7.210;2023-02-01T05:30:16;4.70;99.90
56308;DHT22;42217;50.422;7.210;2023-02-01T05:32:42;4.70;99.90
56308;DHT22;42217;50.422;7.210;2023-02-01T05:35:08;4.70;99.90
56308;DHT22;42217;50.422;7.210;2023-02-01T05:37:34;4.60;99.90
56308;DHT22;42217;50.422;7.210;2023-02-01T05:39:59;4.60;99.90
56308;DHT22;42217;50.422;7.210;2023-02-01T05:42:25;4.50;99.90
56308;DHT22;42217;50.422;7.210;2023-02-01T05:44:50;4.40;99.90
56308;DHT22;42217;50.422;7.210;2023-02-01T05:47:16;4.40;99.90
56308;DHT22;42217;50.422;7.210;2023-02-01T05:49:42;4.50;99.90
56308;DHT22;42217;50.422;7.210;2023-02-01T05:52:08;4.50;99.90
56308;DHT22;42217;50.422;7.210;2023-02-01T05:54:33;4.50;99.90
56308;DHT22;42217;50.422;7.210;2023-02-01T05:56:59;4.40;99.90
56308;DHT22;42217;50.422;7.210;2023-02-01T05:59:25;4.40;99.90
56308;DHT22;42217;50.422;7.210;2023-02-01T06:01:50;4.30;99.90
56308;DHT22;42217;50.422;7.210;2023-02-01T06:04:16;4.30;99.90
56308;DHT22;42217;50.422;7.210;2023-02-01T06:06:41;4.30;99.90
56308;DHT22;42217;50.422;7.210;2023-02-01T06:09:07;4.20;99.90
56308;DHT22;42217;50.422;7.210;2023-02-01T06:11:33;4.10;99.90
56308;DHT22;42217;50.422;7.210;2023-02-01T06:13:59;4.10;99.90
56308;DHT22;42217;50.422;7.210;2023-02-01T06:16:25;4.00;99.90
56308;DHT22;42217;50.422;7.210;2023-02-01T06:18:51;4.10;99.90
56308;DHT22;42217;50.422;7.210;2023-02-01T06:21:17;3.90;99.90
56308;DHT22;42217;50.422;7.210;2023-02-01T06:23:50;4.00;99.90
56308;DHT22;42217;50.422;7.210;2023-02-01T06:26:16;3.90;99.90
56308;DHT22;42217;50.422;7.210;2023-02-01T06:28:43;3.90;99.90
56308;DHT22;42217;50.422;7.210;2023-02-01T06:31:09;4.00;99.90
56308;DHT22;42217;50.422;7.210;2023-02-01T06:33:36;4.00;99.90
56308;DHT22;42217;50.422;7.210;2023-02-01T06:36:04;4.00;99.90
56308;DHT22;42217;50.422;7.210;2023-02-01T06:38:31;4.00;99.90
56308;DHT22;42217;50.422;7.210;2023-02-01T06:40:57;3.90;99.90
56308;DHT22;42217;50.422;7.210;2023-02-01T06:43:24;3.90;99.90
56308;DHT22;42217;50.422;7.210;2023-02-01T06:45:51;3.80;99.90
56308;DHT22;42217;50.422;7.210;2023-02-01T06:48:17;3.90;99.90
56308;DHT22;42217;50.422;7.210;2023-02-01T06:50:43;3.80;99.90
56308;DHT22;42217;50.422;7.210;2023-02-01T06:53:09;3.70;99.90
56308;DHT22;42217;50.422;7.210;2023-02-01T06:55:35;3.70;99.90
56308;DHT22;42217;50.422;7.210;2023-02-01T06:58:01;3.70;99.90
56308;DHT22;42217;50.422;7.210;2023-02-01T07:00:28;3.90;99.90
56308;DHT22;42217;50.422;7.210;2023-02-01T07:02:54;3.90;99.90
56308;DHT22;42217;50.422;7.210;2023-02-01T07:05:21;4.00;99.90
56308;DHT22;42217;50.422;7.210;2023-02-01T07:07:46;3.90;99.90
56308;DHT22;42217;50.422;7.210;2023-02-01T07:10:12;3.90;99.90
56308;DHT22;42217;50.422;7.210;2023-02-01T07:12:38;4.00;99.90
56308;DHT22;42217;50.422;7.210;2023-02-01T07:15:05;4.00;99.90
56308;DHT22;42217;50.422;7.210;2023-02-01T07:17:31;4.00;99.90
56308;DHT22;42217;50.422;7.210;2023-02-01T07:19:57;4.00;99.90
56308;DHT22;42217;50.422;7.210;2023-02-01T07:22:25;4.00;99.90
56308;DHT22;42217;50.422;7.210;2023-02-01T07:24:51;4.10;99.90
56308;DHT22;42217;50.422;7.210;2023-02-01T07:27:16;4.10;99.90
56308;DHT22;42217;50.422;7.210;2023-02-01T07:29:42;4.10;99.90
56308;DHT22;42217;50.422;7.210;2023-02-01T07:32:08;4.00;99.90
56308;DHT22;42217;50.422;7.210;2023-02-01T07:34:33;4.00;99.90
56308;DHT22;42217;50.422;7.210;2023-02-01T07:37:00;4.00;99.90
56308;DHT22;42217;50.422;7.210;2023-02-01T07:39:25;4.10;99.90
56308;DHT22;42217;50.422;7.210;2023-02-01T07:41:53;4.20;99.90
56308;DHT22;42217;50.422;7.210;2023-02-01T07:44:19;4.20;99.90
56308;DHT22;42217;50.422;7.210;2023-02-01T07:46:48;4.30;99.90
56308;DHT22;42217;50.422;7.210;2023-02-01T07:49:14;4.30;99.90
56308;DHT22;42217;50.422;7.210;2023-02-01T07:51:39;4.30;99.90
56308;DHT22;42217;50.422;7.210;2023-02-01T07:54:05;4.40;99.90
56308;DHT22;42217;50.422;7.210;2023-02-01T07:56:31;4.50;99.90
56308;DHT22;42217;50.422;7.210;2023-02-01T07:58:57;4.50;99.90
56308;DHT22;42217;50.422;7.210;2023-02-01T08:01:27;4.70;99.90
56308;DHT22;42217;50.422;7.210;2023-02-01T08:03:55;4.70;99.90
56308;DHT22;42217;50.422;7.210;2023-02-01T08:06:22;4.80;99.90
56308;DHT22;42217;50.422;7.210;2023-02-01T08:08:49;4.90;99.90
56308;DHT22;42217;50.422;7.210;2023-02-01T08:11:16;4.90;99.90
56308;DHT22;42217;50.422;7.210;2023-02-01T08:13:42;5.00;99.90
56308;DHT22;42217;50.422;7.210;2023-02-01T08:16:10;5.00;99.90
56308;DHT22;42217;50.422;7.210;2023-02-01T08:18:37;5.00;99.90
56308;DHT22;42217;50.422;7.210;2023-02-01T08:21:08;5.10;99.90
56308;DHT22;42217;50.422;7.210;2023-02-01T08:23:36;5.10;99.90
56308;DHT22;42217;50.422;7.210;2023-02-01T08:26:08;5.10;99.90
56308;DHT22;42217;50.422;7.210;2023-02-01T08:28:35;5.10;99.90
56308;DHT22;42217;50.422;7.210;2023-02-01T08:31:11;5.10;99.90
56308;DHT22;42217;50.422;7.210;2023-02-01T08:33:37;5.20;99.90
56308;DHT22;42217;50.422;7.210;2023-02-01T08:36:04;5.20;99.90
56308;DHT22;42217;50.422;7.210;2023-02-01T08:38:30;5.10;99.90
56308;DHT22;42217;50.422;7.210;2023-02-01T08:40:56;5.10;99.90
56308;DHT22;42217;50.422;7.210;2023-02-01T08:43:22;5.20;99.90
56308;DHT22;42217;50.422;7.210;2023-02-01T08:45:50;5.20;99.90
56308;DHT22;42217;50.422;7.210;2023-02-01T08:48:19;5.30;99.90
56308;DHT22;42217;50.422;7.210;2023-02-01T08:50:44;5.40;99.90
56308;DHT22;42217;50.422;7.210;2023-02-01T08:53:10;5.40;99.90
56308;DHT22;42217;50.422;7.210;2023-02-01T08:55:39;5.40;99.90
56308;DHT22;42217;50.422;7.210;2023-02-01T08:58:05;5.40;99.90
56308;DHT22;42217;50.422;7.210;2023-02-01T09:00:30;5.40;99.90
56308;DHT22;42217;50.422;7.210;2023-02-01T09:02:56;5.50;99.90
56308;DHT22;42217;50.422;7.210;2023-02-01T09:05:22;5.50;99.90
56308;DHT22;42217;50.422;7.210;2023-02-01T09:07:52;5.50;99.90
56308;DHT22;42217;50.422;7.210;2023-02-01T09:10:18;5.60;99.90
56308;DHT22;42217;50.422;7.210;2023-02-01T09:12:44;5.60;99.90
56308;DHT22;42217;50.422;7.210;2023-02-01T09:15:10;5.70;99.90
56308;DHT22;42217;50.422;7.210;2023-02-01T09:17:36;5.80;99.90
56308;DHT22;42217;50.422;7.210;2023-02-01T09:20:02;5.80;99.90
56308;DHT22;42217;50.422;7.210;2023-02-01T09:22:28;5.80;99.90
56308;DHT22;42217;50.422;7.210;2023-02-01T09:24:53;6.00;99.90
56308;DHT22;42217;50.422;7.210;2023-02-01T09:27:19;6.00;99.90
56308;DHT22;42217;50.422;7.210;2023-02-01T09:29:45;6.00;99.90
56308;DHT22;42217;50.422;7.210;2023-02-01T09:32:15;6.10;99.90
56308;DHT22;42217;50.422;7.210;2023-02-01T09:34:40;6.10;99.90
56308;DHT22;42217;50.422;7.210;2023-02-01T09:37:06;6.20;99.90
56308;DHT22;42217;50.422;7.210;2023-02-01T09:39:32;6.10;99.90
56308;DHT22;42217;50.422;7.210;2023-02-01T09:42:16;6.00;99.90
56308;DHT22;42217;50.422;7.210;2023-02-01T09:47:22;5.90;99.90
56308;DHT22;42217;50.422;7.210;2023-02-01T09:50:00;5.80;99.90
56308;DHT22;42217;50.422;7.210;2023-02-01T09:52:58;5.90;99.90
56308;DHT22;42217;50.422;7.210;2023-02-01T09:55:48;5.90;99.90
56308;DHT22;42217;50.422;7.210;2023-02-01T10:00:50;5.90;99.90
56308;DHT22;42217;50.422;7.210;2023-02-01T10:03:16;5.80;99.90
56308;DHT22;42217;50.422;7.210;2023-02-01T10:22:48;6.30;98.80
56308;DHT22;42217;50.422;7.210;2023-02-01T10:27:42;6.50;96.40
56308;DHT22;42217;50.422;7.210;2023-02-01T10:32:44;6.30;99.50
56308;DHT22;42217;50.422;7.210;2023-02-01T10:35:13;6.30;99.90
56308;DHT22;42217;50.422;7.210;2023-02-01T10:37:41;6.50;99.90
56308;DHT22;42217;50.422;7.210;2023-02-01T10:40:22;6.40;99.20
56308;DHT22;42217;50.422;7.210;2023-02-01T10:42:53;6.30;99.90
56308;DHT22;42217;50.422;7.210;2023-02-01T10:45:22;6.30;99.90
56308;DHT22;42217;50.422;7.210;2023-02-01T10:47:51;6.50;99.90
56308;DHT22;42217;50.422;7.210;2023-02-01T10:53:28;6.70;99.00
56308;DHT22;42217;50.422;7.210;2023-02-01T10:55:55;6.80;99.00
56308;DHT22;42217;50.422;7.210;2023-02-01T10:58:25;6.70;98.70
56308;DHT22;42217;50.422;7.210;2023-02-01T11:00:55;6.70;99.30
56308;DHT22;42217;50.422;7.210;2023-02-01T11:06:37;6.60;99.10
56308;DHT22;42217;50.422;7.210;2023-02-01T11:14:15;6.50;99.60
56308;DHT22;42217;50.422;7.210;2023-02-01T11:16:41;6.70;99.40
56308;DHT22;42217;50.422;7.210;2023-02-01T11:19:15;6.80;96.60
56308;DHT22;42217;50.422;7.210;2023-02-01T11:21:42;6.70;97.10
56308;DHT22;42217;50.422;7.210;2023-02-01T11:24:26;6.50;99.20
56308;DHT22;42217;50.422;7.210;2023-02-01T11:26:57;6.50;99.30
56308;DHT22;42217;50.422;7.210;2023-02-01T11:29:25;6.40;99.00
56308;DHT22;42217;50.422;7.210;2023-02-01T11:31:59;6.40;99.90
56308;DHT22;42217;50.422;7.210;2023-02-01T11:34:49;6.30;99.80
56308;DHT22;42217;50.422;7.210;2023-02-01T11:37:23;6.30;99.90
56308;DHT22;42217;50.422;7.210;2023-02-01T11:39:56;6.40;99.90
56308;DHT22;42217;50.422;7.210;2023-02-01T11:42:21;6.40;99.50
56308;DHT22;42217;50.422;7.210;2023-02-01T11:44:47;6.40;99.50
56308;DHT22;42217;50.422;7.210;2023-02-01T11:47:27;6.40;99.90
56308;DHT22;42217;50.422;7.210;2023-02-01T11:49:55;6.40;98.50
56308;DHT22;42217;50.422;7.210;2023-02-01T11:55:22;6.50;96.50
56308;DHT22;42217;50.422;7.210;2023-02-01T12:01:05;6.40;98.50
56308;DHT22;42217;50.422;7.210;2023-02-01T12:09:29;6.50;97.40
56308;DHT22;42217;50.422;7.210;2023-02-01T12:23:05;7.00;90.60
56308;DHT22;42217;50.422;7.210;2023-02-01T12:31:25;6.90;93.40
56308;DHT22;42217;50.422;7.210;2023-02-01T12:44:24;7.20;90.40
56308;DHT22;42217;50.422;7.210;2023-02-01T12:47:26;7.10;89.80
56308;DHT22;42217;50.422;7.210;2023-02-01T12:52:49;7.10;89.30
56308;DHT22;42217;50.422;7.210;2023-02-01T12:58:21;7.50;78.90
56308;DHT22;42217;50.422;7.210;2023-02-01T13:00:58;7.60;82.50
56308;DHT22;42217;50.422;7.210;2023-02-01T13:06:17;7.40;82.00
56308;DHT22;42217;50.422;7.210;2023-02-01T13:11:20;7.20;88.30
56308;DHT22;42217;50.422;7.210;2023-02-01T13:16:42;7.20;86.10
56308;DHT22;42217;50.422;7.210;2023-02-01T13:19:27;7.20;84.30
56308;DHT22;42217;50.422;7.210;2023-02-01T13:22:02;7.20;82.60
56308;DHT22;42217;50.422;7.210;2023-02-01T13:24:43;7.00;78.50
56308;DHT22;42217;50.422;7.210;2023-02-01T13:27:14;6.90;87.50
56308;DHT22;42217;50.422;7.210;2023-02-01T13:29:57;7.00;86.90
56308;DHT22;42217;50.422;7.210;2023-02-01T13:32:38;7.00;84.80
56308;DHT22;42217;50.422;7.210;2023-02-01T13:35:31;6.90;85.20
56308;DHT22;42217;50.422;7.210;2023-02-01T13:43:26;6.80;89.90
56308;DHT22;42217;50.422;7.210;2023-02-01T13:45:56;6.80;88.30
56308;DHT22;42217;50.422;7.210;2023-02-01T13:48:39;6.80;91.00
56308;DHT22;42217;50.422;7.210;2023-02-01T13:51:05;6.80;91.20
56308;DHT22;42217;50.422;7.210;2023-02-01T13:53:34;6.90;90.40
56308;DHT22;42217;50.422;7.210;2023-02-01T13:56:11;6.90;89.50
56308;DHT22;42217;50.422;7.210;2023-02-01T13:58:39;6.80;90.00
56308;DHT22;42217;50.422;7.210;2023-02-01T14:03:54;6.80;90.40
56308;DHT22;42217;50.422;7.210;2023-02-01T14:11:42;6.80;92.10
56308;DHT22;42217;50.422;7.210;2023-02-01T14:19:32;6.70;92.60
56308;DHT22;42217;50.422;7.210;2023-02-01T14:24:55;6.80;92.80
56308;DHT22;42217;50.422;7.210;2023-02-01T14:27:27;6.80;90.80
56308;DHT22;42217;50.422;7.210;2023-02-01T14:29:57;6.90;92.10
56308;DHT22;42217;50.422;7.210;2023-02-01T14:34:54;6.90;90.10
56308;DHT22;42217;50.422;7.210;2023-02-01T14:47:55;6.90;92.30
56308;DHT22;42217;50.422;7.210;2023-02-01T14:50:43;6.90;93.00
56308;DHT22;42217;50.422;7.210;2023-02-01T14:53:15;6.90;93.40
56308;DHT22;42217;50.422;7.210;2023-02-01T14:55:52;6.80;94.00
56308;DHT22;42217;50.422;7.210;2023-02-01T15:01:25;6.70;96.50
56308;DHT22;42217;50.422;7.210;2023-02-01T15:04:10;6.70;97.00
56308;DHT22;42217;50.422;7.210;2023-02-01T15:09:31;6.70;98.50
56308;DHT22;42217;50.422;7.210;2023-02-01T15:14:45;6.80;97.50
56308;DHT22;42217;50.422;7.210;2023-02-01T15:17:30;6.80;96.50
56308;DHT22;42217;50.422;7.210;2023-02-01T15:23:04;6.80;97.40
56308;DHT22;42217;50.422;7.210;2023-02-01T15:25:38;6.80;97.30
56308;DHT22;42217;50.422;7.210;2023-02-01T15:28:04;6.90;96.20
56308;DHT22;42217;50.422;7.210;2023-02-01T15:30:34;6.90;95.60
56308;DHT22;42217;50.422;7.210;2023-02-01T15:41:23;6.90;98.10
56308;DHT22;42217;50.422;7.210;2023-02-01T15:46:24;6.80;98.60
56308;DHT22;42217;50.422;7.210;2023-02-01T15:48:55;6.80;99.10
56308;DHT22;42217;50.422;7.210;2023-02-01T15:51:23;6.80;99.20
56308;DHT22;42217;50.422;7.210;2023-02-01T15:54:01;6.80;99.30
56308;DHT22;42217;50.422;7.210;2023-02-01T15:56:32;6.70;99.60
56308;DHT22;42217;50.422;7.210;2023-02-01T15:59:01;6.70;99.90
56308;DHT22;42217;50.422;7.210;2023-02-01T16:01:27;6.70;99.90
56308;DHT22;42217;50.422;7.210;2023-02-01T16:04:22;6.60;99.90
56308;DHT22;42217;50.422;7.210;2023-02-01T16:06:56;6.60;99.90
56308;DHT22;42217;50.422;7.210;2023-02-01T16:09:25;6.50;99.90
56308;DHT22;42217;50.422;7.210;2023-02-01T16:12:01;6.50;99.90
56308;DHT22;42217;50.422;7.210;2023-02-01T16:14:27;6.40;99.90
56308;DHT22;42217;50.422;7.210;2023-02-01T16:16:56;6.30;99.90
56308;DHT22;42217;50.422;7.210;2023-02-01T16:19:22;6.30;99.90
56308;DHT22;42217;50.422;7.210;2023-02-01T16:21:54;6.30;99.90
56308;DHT22;42217;50.422;7.210;2023-02-01T16:24:20;6.30;99.90
56308;DHT22;42217;50.422;7.210;2023-02-01T16:26:48;6.20;99.90
56308;DHT22;42217;50.422;7.210;2023-02-01T16:29:14;6.10;99.90
56308;DHT22;42217;50.422;7.210;2023-02-01T16:31:41;6.00;99.90
56308;DHT22;42217;50.422;7.210;2023-02-01T16:34:14;5.90;99.90
56308;DHT22;42217;50.422;7.210;2023-02-01T16:36:42;5.80;99.90
56308;DHT22;42217;50.422;7.210;2023-02-01T16:39:11;5.80;99.90
56308;DHT22;42217;50.422;7.210;2023-02-01T16:41:38;5.70;99.90
56308;DHT22;42217;50.422;7.210;2023-02-01T16:44:04;5.60;99.90
56308;DHT22;42217;50.422;7.210;2023-02-01T16:46:35;5.60;99.90
56308;DHT22;42217;50.422;7.210;2023-02-01T16:49:04;5.60;99.90
56308;DHT22;42217;50.422;7.210;2023-02-01T16:51:32;5.60;99.90
56308;DHT22;42217;50.422;7.210;2023-02-01T16:53:59;5.60;99.90
56308;DHT22;42217;50.422;7.210;2023-02-01T16:56:32;5.50;99.90
56308;DHT22;42217;50.422;7.210;2023-02-01T16:58:58;5.50;99.90
56308;DHT22;42217;50.422;7.210;2023-02-01T17:01:24;5.40;99.90
56308;DHT22;42217;50.422;7.210;2023-02-01T17:03:50;5.30;99.90
56308;DHT22;42217;50.422;7.210;2023-02-01T17:06:22;5.30;99.90
56308;DHT22;42217;50.422;7.210;2023-02-01T17:08:53;5.30;99.90
56308;DHT22;42217;50.422;7.210;2023-02-01T17:11:20;5.30;99.90
56308;DHT22;42217;50.422;7.210;2023-02-01T17:13:47;5.30;99.90
56308;DHT22;42217;50.422;7.210;2023-02-01T17:16:21;5.30;99.90
56308;DHT22;42217;50.422;7.210;2023-02-01T17:19:13;5.30;99.90
56308;DHT22;42217;50.422;7.210;2023-02-01T17:21:44;5.30;99.90
56308;DHT22;42217;50.422;7.210;2023-02-01T17:24:14;5.40;99.90
56308;DHT22;42217;50.422;7.210;2023-02-01T17:26:41;5.30;99.90
56308;DHT22;42217;50.422;7.210;2023-02-01T17:29:07;5.30;99.90
56308;DHT22;42217;50.422;7.210;2023-02-01T17:31:37;5.20;99.90
56308;DHT22;42217;50.422;7.210;2023-02-01T17:34:03;5.20;99.90
56308;DHT22;42217;50.422;7.210;2023-02-01T17:36:29;5.20;99.90
56308;DHT22;42217;50.422;7.210;2023-02-01T17:38:54;5.10;99.90
56308;DHT22;42217;50.422;7.210;2023-02-01T17:41:20;5.10;99.90
56308;DHT22;42217;50.422;7.210;2023-02-01T17:43:53;5.10;99.90
56308;DHT22;42217;50.422;7.210;2023-02-01T17:46:18;5.10;99.90
56308;DHT22;42217;50.422;7.210;2023-02-01T17:48:47;5.00;99.90
56308;DHT22;42217;50.422;7.210;2023-02-01T17:51:18;4.90;99.90
56308;DHT22;42217;50.422;7.210;2023-02-01T17:53:45;4.90;99.90
56308;DHT22;42217;50.422;7.210;2023-02-01T17:56:14;5.00;99.90
56308;DHT22;42217;50.422;7.210;2023-02-01T17:58:41;5.10;99.90
56308;DHT22;42217;50.422;7.210;2023-02-01T18:01:17;5.00;99.90
56308;DHT22;42217;50.422;7.210;2023-02-01T18:03:44;5.10;99.90
56308;DHT22;42217;50.422;7.210;2023-02-01T18:06:18;5.10;99.90
56308;DHT22;42217;50.422;7.210;2023-02-01T18:08:46;5.20;99.90
56308;DHT22;42217;50.422;7.210;2023-02-01T18:11:17;5.20;99.90
56308;DHT22;42217;50.422;7.210;2023-02-01T18:13:45;5.20;99.90
56308;DHT22;42217;50.422;7.210;2023-02-01T18:16:22;5.30;99.90
56308;DHT22;42217;50.422;7.210;2023-02-01T18:18:49;5.20;99.90
56308;DHT22;42217;50.422;7.210;2023-02-01T18:21:16;5.30;99.90
56308;DHT22;42217;50.422;7.210;2023-02-01T18:23:42;5.30;99.90
56308;DHT22;42217;50.422;7.210;2023-02-01T18:26:12;5.30;99.90
56308;DHT22;42217;50.422;7.210;2023-02-01T18:28:38;5.30;99.90
56308;DHT22;42217;50.422;7.210;2023-02-01T18:31:05;5.30;99.90
56308;DHT22;42217;50.422;7.210;2023-02-01T18:33:32;5.30;99.90
56308;DHT22;42217;50.422;7.210;2023-02-01T18:35:58;5.40;99.90
56308;DHT22;42217;50.422;7.210;2023-02-01T18:38:25;5.40;99.90
56308;DHT22;42217;50.422;7.210;2023-02-01T18:40:55;5.40;99.90
56308;DHT22;42217;50.422;7.210;2023-02-01T18:43:34;5.40;99.90
56308;DHT22;42217;50.422;7.210;2023-02-01T18:46:02;5.40;99.90
56308;DHT22;42217;50.422;7.210;2023-02-01T18:48:28;5.40;99.90
56308;DHT22;42217;50.422;7.210;2023-02-01T18:50:55;5.40;99.90
56308;DHT22;42217;50.422;7.210;2023-02-01T18:53:22;5.30;99.90
56308;DHT22;42217;50.422;7.210;2023-02-01T18:55:53;5.30;99.90
56308;DHT22;42217;50.422;7.210;2023-02-01T18:58:20;5.30;99.90
56308;DHT22;42217;50.422;7.210;2023-02-01T19:00:48;5.20;99.90
56308;DHT22;42217;50.422;7.210;2023-02-01T19:03:14;5.20;99.90
56308;DHT22;42217;50.422;7.210;2023-02-01T19:05:43;5.20;99.90